Time;durP1;ratioP1;P1;durP2;ratioP2;P2;SDS_P1;SDS_P2;PMS_P1;PMS_P2;Temp;Humidity;BMP_temperature;BMP_pressure;BME280_temperature;BME280_humidity;BME280_pressure;Samples;Min_cycle;Max_cycle;Signal;HPM_P1;HPM_P2
2022/06/03 00:00:13;;;;;;;12.33;6.00;;;18.20;57.90;;;;;;5071777;28;20673;-94
2022/06/03 00:03:23;;;;;;;13.80;6.43;;;18.10;57.70;;;;;;5075414;28;20245;-94
2022/06/03 00:09:55;;;;;;;11.20;5.67;;;18.10;58.20;;;;;;4966578;28;20426;-95
2022/06/03 00:15:59;;;;;;;11.13;5.67;;;18.10;58.40;;;;;;5057788;22;20250;-94
2022/06/03 00:19:03;;;;;;;12.07;5.73;;;18.00;58.70;;;;;;5054227;28;20225;-93
2022/06/03 00:22:14;;;;;;;9.27;5.40;;;18.00;58.40;;;;;;5052995;28;20201;-94
2022/06/03 00:25:38;;;;;;;11.43;5.90;;;18.00;58.40;;;;;;5029813;28;20199;-95
2022/06/03 00:31:38;;;;;;;14.30;6.73;;;18.00;58.80;;;;;;5077280;22;20221;-94
2022/06/03 00:34:40;;;;;;;17.33;7.33;;;17.90;58.60;;;;;;5073178;28;20592;-95
2022/06/03 00:37:24;;;;;;;15.97;7.27;;;17.90;59.00;;;;;;5061314;28;20653;-93
2022/06/03 00:43:46;;;;;;;11.23;6.03;;;17.90;59.30;;;;;;5070197;22;20281;-93
2022/06/03 00:46:34;;;;;;;20.17;7.90;;;17.90;59.30;;;;;;5045133;28;20202;-94
2022/06/03 00:49:54;;;;;;;17.27;7.37;;;17.80;59.10;;;;;;5049393;28;20288;-94
2022/06/03 00:53:03;;;;;;;18.40;7.77;;;17.80;59.40;;;;;;4965178;28;20201;-94
2022/06/03 00:55:58;;;;;;;11.67;6.20;;;17.80;59.50;;;;;;4969233;28;20954;-93
2022/06/03 01:02:32;;;;;;;12.77;6.40;;;17.80;59.80;;;;;;5012991;28;20241;-93
2022/06/03 01:05:36;;;;;;;11.20;6.07;;;17.70;59.50;;;;;;5032571;28;20201;-95
2022/06/03 01:08:43;;;;;;;13.70;6.80;;;17.70;59.90;;;;;;5030125;28;20204;-94
2022/06/03 01:11:48;;;;;;;19.47;8.63;;;17.70;60.10;;;;;;5024137;28;20214;-93
2022/06/03 01:14:30;;;;;;;14.17;6.40;;;17.70;60.30;;;;;;5025901;28;20267;-93
2022/06/03 01:17:11;;;;;;;13.93;6.17;;;17.70;59.90;;;;;;5030554;28;20197;-93
2022/06/03 01:20:03;;;;;;;14.30;7.03;;;17.70;60.20;;;;;;5033203;28;20617;-93
2022/06/03 01:30:12;;;;;;;15.53;6.90;;;17.70;60.50;;;;;;5063319;22;20233;-94
2022/06/03 01:36:33;;;;;;;10.20;5.73;;;17.70;60.30;;;;;;5039589;28;20268;-93
2022/06/03 01:39:31;;;;;;;8.60;5.57;;;17.70;60.40;;;;;;5064651;28;20191;-95
2022/06/03 01:42:37;;;;;;;12.03;5.80;;;17.70;60.40;;;;;;5057861;28;20199;-95
2022/06/03 01:48:57;;;;;;;13.57;7.10;;;17.80;60.50;;;;;;5042007;28;20208;-95
2022/06/03 01:51:58;;;;;;;7.90;5.17;;;17.80;60.50;;;;;;5052894;28;20342;-94
2022/06/03 01:54:52;;;;;;;12.10;6.73;;;17.80;60.50;;;;;;5068630;28;20245;-94
2022/06/03 01:57:58;;;;;;;;;;;;;;;;;;;;;
2022/06/03 02:00:32;;;;;;;15.30;6.73;;;17.80;60.40;;;;;;5051599;28;20204;-94
2022/06/03 02:03:25;;;;;;;11.67;6.20;;;17.80;59.90;;;;;;5061522;28;20231;-94
2022/06/03 02:09:54;;;;;;;12.97;7.20;;;17.80;60.50;;;;;;5073677;22;20290;-93
2022/06/03 02:13:02;;;;;;;10.73;6.57;;;17.80;60.50;;;;;;5035417;28;20257;-94
2022/06/03 02:16:03;;;;;;;9.70;6.13;;;17.90;60.30;;;;;;5034068;28;20256;-95
2022/06/03 02:19:05;;;;;;;13.07;6.87;;;17.80;60.40;;;;;;5073512;28;20213;-93
2022/06/03 02:21:57;;;;;;;15.70;7.27;;;17.80;60.40;;;;;;5068454;28;20213;-95
2022/06/03 02:24:58;;;;;;;13.20;6.53;;;17.80;61.10;;;;;;5070230;28;20282;-94
2022/06/03 02:28:07;;;;;;;10.07;6.43;;;17.80;60.20;;;;;;5059345;28;20218;-93
2022/06/03 02:34:24;;;;;;;16.03;7.93;;;17.80;59.80;;;;;;5056688;22;20372;-95
2022/06/03 02:37:50;;;;;;;12.43;6.53;;;17.80;60.00;;;;;;5054695;28;20194;-95
2022/06/03 02:40:46;;;;;;;21.47;9.43;;;17.70;60.00;;;;;;5019114;28;20200;-94
2022/06/03 02:44:08;;;;;;;19.37;9.10;;;17.70;60.00;;;;;;5049256;28;20209;-93
2022/06/03 02:47:18;;;;;;;12.83;7.07;;;17.70;60.10;;;;;;5030857;28;20213;-92
2022/06/03 02:50:38;;;;;;;15.43;7.27;;;17.70;60.10;;;;;;5058780;28;20208;-93
2022/06/03 02:53:45;;;;;;;14.33;6.53;;;17.70;60.40;;;;;;5040848;28;20218;-94
2022/06/03 02:56:46;;;;;;;13.77;7.43;;;17.60;60.30;;;;;;5035820;28;20320;-93
2022/06/03 02:59:39;;;;;;;13.27;7.23;;;17.60;60.30;;;;;;5034887;28;20217;-93
2022/06/03 03:02:23;;;;;;;9.07;6.67;;;17.60;60.20;;;;;;5041617;28;20641;-93
2022/06/03 03:05:18;;;;;;;11.23;7.10;;;17.60;60.10;;;;;;5053329;28;20193;-93
2022/06/03 03:08:06;;;;;;;9.43;6.60;;;17.60;60.30;;;;;;5047452;28;20567;-94
2022/06/03 03:11:09;;;;;;;10.43;6.87;;;17.60;60.30;;;;;;4998009;28;20245;-94
2022/06/03 03:14:13;;;;;;;9.63;6.77;;;17.60;60.40;;;;;;5023769;28;20560;-93
2022/06/03 03:17:17;;;;;;;10.03;6.90;;;17.60;60.30;;;;;;5014356;28;20207;-94
2022/06/03 03:20:25;;;;;;;12.93;7.80;;;17.60;60.40;;;;;;5018737;28;20202;-94
2022/06/03 03:23:25;;;;;;;9.57;7.40;;;17.60;60.30;;;;;;5034934;28;20210;-94
2022/06/03 03:26:16;;;;;;;10.67;7.63;;;17.50;60.30;;;;;;5034448;28;20600;-95
2022/06/03 03:28:57;;;;;;;11.67;7.00;;;17.60;60.50;;;;;;5036055;28;20228;-94
2022/06/03 03:31:57;;;;;;;11.70;7.57;;;17.60;60.30;;;;;;5032091;28;20300;-95
2022/06/03 03:35:06;;;;;;;12.40;7.90;;;17.60;60.70;;;;;;5013974;28;20667;-95
2022/06/03 03:38:10;;;;;;;13.20;8.03;;;17.60;60.30;;;;;;4965520;28;20208;-95
2022/06/03 03:41:18;;;;;;;13.07;8.30;;;17.60;60.50;;;;;;5024174;28;20297;-95
2022/06/03 03:44:26;;;;;;;10.60;6.83;;;17.60;60.40;;;;;;5014575;28;20303;-95
2022/06/03 03:47:13;;;;;;;12.57;7.47;;;17.50;60.40;;;;;;5016854;28;20503;-95
2022/06/03 03:50:32;;;;;;;15.23;8.80;;;17.50;60.20;;;;;;5019917;28;20218;-94
2022/06/03 03:53:39;;;;;;;10.60;6.83;;;17.50;60.30;;;;;;5033302;28;20211;-95
2022/06/03 03:56:46;;;;;;;15.77;7.80;;;17.50;60.40;;;;;;5033726;28;20216;-94
2022/06/03 03:59:51;;;;;;;10.90;6.97;;;17.50;60.30;;;;;;5014724;28;20218;-94
2022/06/03 04:02:43;;;;;;;14.03;8.07;;;17.50;60.40;;;;;;5012608;28;20202;-95
2022/06/03 04:05:47;;;;;;;15.70;9.10;;;17.50;60.40;;;;;;5012392;28;20229;-94
2022/06/03 04:08:49;;;;;;;10.63;7.60;;;17.50;60.50;;;;;;5016742;28;20215;-93
2022/06/03 04:12:04;;;;;;;13.13;8.70;;;17.40;60.50;;;;;;5015034;28;20207;-95
2022/06/03 04:18:30;;;;;;;13.03;8.20;;;17.40;60.80;;;;;;5041888;23;20254;-96
2022/06/03 04:21:48;;;;;;;14.07;8.30;;;17.30;60.70;;;;;;4995321;28;20994;-95
2022/06/03 04:24:47;;;;;;;11.07;7.50;;;17.30;60.60;;;;;;5025312;28;20209;-96
2022/06/03 04:27:51;;;;;;;9.43;7.13;;;17.30;60.80;;;;;;5040107;28;20714;-96
2022/06/03 04:31:04;;;;;;;9.87;7.33;;;17.20;60.80;;;;;;5057727;28;20213;-95
2022/06/03 04:34:09;;;;;;;10.87;7.57;;;17.20;60.70;;;;;;5053833;28;20664;-95
2022/06/03 04:37:24;;;;;;;15.50;9.27;;;17.20;60.70;;;;;;5034317;28;20209;-94
2022/06/03 04:40:41;;;;;;;11.20;7.63;;;17.20;60.80;;;;;;5086934;28;20192;-93
2022/06/03 04:43:45;;;;;;;16.37;9.53;;;17.10;60.80;;;;;;5420035;22;20299;-93
2022/06/03 04:50:18;;;;;;;16.83;9.23;;;17.10;61.20;;;;;;5033038;28;20342;-94
2022/06/03 04:53:34;;;;;;;10.00;7.43;;;17.10;61.10;;;;;;5046518;28;20216;-93
2022/06/03 04:59:56;;;;;;;13.47;8.57;;;17.10;61.00;;;;;;5135451;27;20552;-93
2022/06/03 05:03:01;;;;;;;10.80;7.83;;;17.10;61.20;;;;;;5130141;27;20725;-95
2022/06/03 05:06:01;;;;;;;16.10;9.73;;;17.10;61.20;;;;;;5136493;27;20221;-93
2022/06/03 05:09:19;;;;;;;14.17;9.20;;;17.10;61.10;;;;;;5111335;28;20187;-93
2022/06/03 05:12:31;;;;;;;18.33;10.37;;;17.20;61.20;;;;;;5062752;28;20205;-95
2022/06/03 05:22:41;;;;;;;14.87;9.23;;;17.30;61.00;;;;;;5098402;28;20210;-92
2022/06/03 05:28:52;;;;;;;25.80;10.33;;;17.40;60.90;;;;;;5107654;28;20550;-91
2022/06/03 05:35:12;;;;;;;18.13;10.67;;;17.50;60.80;;;;;;5253397;22;20224;-92
2022/06/03 05:38:15;;;;;;;15.27;9.50;;;17.50;60.70;;;;;;5067956;28;20315;-91
2022/06/03 05:41:01;;;;;;;17.73;10.10;;;17.50;60.20;;;;;;5043543;28;20260;-95
2022/06/03 05:43:50;;;;;;;11.50;8.40;;;17.60;60.30;;;;;;5065821;28;20246;-91
2022/06/03 05:46:31;;;;;;;13.57;9.43;;;17.60;60.30;;;;;;5068194;28;20205;-92
2022/06/03 05:49:36;;;;;;;21.50;11.30;;;17.70;60.30;;;;;;5070345;28;20202;-94
2022/06/03 05:57:21;;;;;;;14.43;11.03;;;17.80;60.10;;;;;;5050623;28;20213;-94
2022/06/03 06:00:18;;;;;;;15.80;9.43;;;17.80;60.10;;;;;;5049288;28;20300;-93
2022/06/03 06:03:40;;;;;;;17.90;10.33;;;17.90;60.00;;;;;;5047597;28;20296;-94
2022/06/03 06:06:36;;;;;;;15.67;10.57;;;17.90;60.10;;;;;;5042560;28;20206;-94
2022/06/03 06:09:29;;;;;;;18.77;10.60;;;18.00;60.10;;;;;;5034637;28;20625;-96
2022/06/03 06:12:34;;;;;;;17.77;10.73;;;18.00;60.10;;;;;;5024868;28;20719;-94
2022/06/03 06:18:43;;;;;;;14.30;10.53;;;18.10;59.90;;;;;;5041138;28;20712;-92
2022/06/03 06:21:49;;;;;;;13.97;9.60;;;18.20;59.90;;;;;;5037152;28;20211;-94
2022/06/03 06:24:45;;;;;;;14.43;10.30;;;18.20;59.80;;;;;;5035915;28;20200;-93
2022/06/03 06:31:14;;;;;;;16.33;9.17;;;18.30;59.70;;;;;;5062726;22;20246;-96
2022/06/03 06:34:25;;;;;;;12.80;8.73;;;18.40;59.60;;;;;;5053434;28;20200;-94
2022/06/03 06:37:32;;;;;;;16.03;9.30;;;18.50;59.70;;;;;;5052725;28;20266;-94
2022/06/03 06:40:32;;;;;;;14.23;10.20;;;18.60;59.60;;;;;;5068866;28;20210;-93
2022/06/03 06:43:10;;;;;;;18.00;11.10;;;18.60;59.40;;;;;;5048987;28;20198;-94
2022/06/03 06:45:57;;;;;;;17.63;9.97;;;18.70;59.50;;;;;;5054605;28;20249;-93
2022/06/03 06:48:39;;;;;;;26.37;11.17;;;18.80;59.40;;;;;;5048861;28;20218;-91
2022/06/03 06:51:27;;;;;;;16.43;10.60;;;18.80;59.30;;;;;;5052760;28;20291;-91
2022/06/03 06:53:59;;;;;;;12.67;10.23;;;18.90;59.20;;;;;;5042060;28;20242;-92
2022/06/03 06:56:33;;;;;;;15.97;9.87;;;19.00;59.10;;;;;;5053231;28;20212;-91
2022/06/03 06:59:05;;;;;;;16.97;11.53;;;19.00;59.00;;;;;;5051997;28;20699;-92
2022/06/03 07:01:56;;;;;;;17.67;10.90;;;19.10;59.10;;;;;;5052696;28;20231;-92
2022/06/03 07:04:27;;;;;;;17.60;10.43;;;19.20;59.30;;;;;;5049253;28;20204;-91
2022/06/03 07:07:05;;;;;;;12.07;9.20;;;19.20;59.10;;;;;;5052815;28;20199;-94
2022/06/03 07:09:39;;;;;;;14.67;10.67;;;19.30;59.00;;;;;;5049999;28;20239;-92
2022/06/03 07:12:13;;;;;;;15.70;10.17;;;19.40;58.80;;;;;;5033223;28;20208;-93
2022/06/03 07:14:57;;;;;;;13.17;9.37;;;19.40;58.70;;;;;;5049831;28;20248;-95
2022/06/03 07:21:09;;;;;;;13.97;9.53;;;19.60;58.80;;;;;;5045426;28;20200;-92
2022/06/03 07:23:48;;;;;;;15.17;10.43;;;19.60;58.70;;;;;;5050917;28;20417;-94
2022/06/03 07:26:35;;;;;;;13.30;9.63;;;19.70;58.50;;;;;;5051677;28;20204;-92
2022/06/03 07:29:20;;;;;;;33.13;13.00;;;19.80;58.40;;;;;;5049993;28;20211;-91
2022/06/03 07:32:11;;;;;;;15.70;10.37;;;19.80;58.80;;;;;;5052485;28;20261;-93
2022/06/03 07:37:08;;;;;;;23.33;12.27;;;20.00;58.40;;;;;;5067763;22;20240;-92
2022/06/03 07:39:50;;;;;;;16.43;10.13;;;20.00;58.40;;;;;;5050526;28;20219;-92
2022/06/03 07:42:25;;;;;;;17.50;9.97;;;20.10;58.20;;;;;;5052721;28;20212;-92
2022/06/03 07:45:05;;;;;;;12.93;9.00;;;20.20;58.40;;;;;;5050531;28;20207;-91
2022/06/03 07:47:34;;;;;;;21.07;9.13;;;20.30;58.30;;;;;;5032669;28;20565;-91
2022/06/03 07:50:08;;;;;;;24.40;9.53;;;20.40;58.50;;;;;;5042131;28;20516;-93
2022/06/03 07:53:18;;;;;;;38.57;12.70;;;20.40;58.20;;;;;;5047972;28;20699;-92
2022/06/03 07:55:53;;;;;;;22.10;10.90;;;20.50;58.20;;;;;;5051919;22;20259;-92
2022/06/03 07:58:39;;;;;;;16.37;10.37;;;20.60;58.00;;;;;;5048287;28;20269;-91
2022/06/03 08:01:20;;;;;;;14.03;9.27;;;20.70;57.50;;;;;;5046802;28;20274;-90
2022/06/03 08:03:48;;;;;;;11.47;8.80;;;20.80;58.00;;;;;;5040959;28;20197;-90
2022/06/03 08:06:30;;;;;;;14.00;9.63;;;20.80;57.90;;;;;;5035881;28;20204;-93
2022/06/03 08:11:54;;;;;;;16.57;10.00;;;21.00;57.80;;;;;;5039864;28;20568;-90
2022/06/03 08:14:41;;;;;;;24.73;11.20;;;21.10;57.50;;;;;;5040350;28;20196;-89
2022/06/03 08:17:30;;;;;;;24.00;11.33;;;21.20;57.70;;;;;;5040525;28;20192;-92
2022/06/03 08:19:58;;;;;;;22.67;9.37;;;21.30;57.20;;;;;;5038271;28;20750;-91
2022/06/03 08:25:29;;;;;;;12.13;8.50;;;21.40;57.50;;;;;;5048066;28;20200;-93
2022/06/03 08:28:02;;;;;;;33.63;10.83;;;21.50;57.00;;;;;;5048885;28;20360;-91
2022/06/03 08:30:41;;;;;;;14.83;9.87;;;21.60;57.40;;;;;;5040691;28;20196;-92
2022/06/03 08:33:13;;;;;;;11.97;8.83;;;21.70;56.40;;;;;;5038678;28;20206;-93
2022/06/03 08:35:48;;;;;;;14.10;8.47;;;21.80;56.50;;;;;;5038675;28;20798;-93
2022/06/03 08:38:20;;;;;;;13.13;9.87;;;22.00;56.90;;;;;;5040288;28;20247;-93
2022/06/03 08:41:26;;;;;;;14.53;8.73;;;22.10;56.70;;;;;;5037456;28;20242;-92
2022/06/03 08:44:21;;;;;;;15.67;9.73;;;22.30;56.30;;;;;;5038177;28;20669;-92
2022/06/03 08:47:20;;;;;;;15.67;8.57;;;22.50;56.10;;;;;;5036778;28;20209;-94
2022/06/03 08:49:57;;;;;;;12.13;8.30;;;22.70;55.80;;;;;;5030874;28;20674;-91
2022/06/03 08:52:31;;;;;;;12.67;7.93;;;23.00;56.00;;;;;;5030089;28;20215;-93
2022/06/03 08:55:04;;;;;;;12.80;9.30;;;23.20;56.40;;;;;;5029702;28;20212;-91
2022/06/03 08:57:39;;;;;;;18.67;8.77;;;23.40;56.10;;;;;;5031620;28;20239;-91
2022/06/03 09:00:13;;;;;;;16.87;9.53;;;23.60;55.70;;;;;;5030975;28;20236;-93
2022/06/03 09:02:50;;;;;;;18.30;10.53;;;23.90;55.60;;;;;;5027859;28;20229;-93
2022/06/03 09:05:23;;;;;;;15.67;10.23;;;24.10;56.00;;;;;;5038235;28;20614;-93
2022/06/03 09:10:51;;;;;;;10.60;6.90;;;24.50;54.30;;;;;;5026390;28;20338;-90
2022/06/03 09:13:30;;;;;;;10.83;6.93;;;24.80;55.30;;;;;;5040300;28;20245;-91
2022/06/03 09:16:01;;;;;;;13.97;7.93;;;25.00;54.50;;;;;;5042619;28;20196;-92
2022/06/03 09:21:48;;;;;;;14.07;8.30;;;25.40;53.50;;;;;;5072466;22;20236;-90
2022/06/03 09:24:40;;;;;;;12.57;8.73;;;25.70;52.40;;;;;;5048328;28;20200;-91
2022/06/03 09:27:13;;;;;;;11.77;7.90;;;25.90;52.90;;;;;;5049236;28;20607;-89
2022/06/03 09:32:50;;;;;;;13.20;8.27;;;26.30;51.50;;;;;;5048495;28;20337;-91
2022/06/03 09:35:38;;;;;;;13.60;7.87;;;26.40;52.00;;;;;;5049990;28;20299;-91
2022/06/03 09:38:09;;;;;;;11.03;7.50;;;26.60;50.40;;;;;;5055041;28;20211;-91
2022/06/03 09:40:42;;;;;;;12.53;7.50;;;26.70;51.10;;;;;;5046876;28;20204;-89
2022/06/03 09:43:16;;;;;;;18.47;9.67;;;26.90;50.70;;;;;;5065100;22;20635;-91
2022/06/03 09:45:47;;;;;;;8.40;6.97;;;27.00;50.60;;;;;;5048258;28;20199;-91
2022/06/03 09:48:26;;;;;;;9.43;6.37;;;27.10;50.50;;;;;;5058843;28;20184;-93
2022/06/03 09:51:00;;;;;;;8.03;6.27;;;27.20;50.40;;;;;;5048534;28;21230;-93
2022/06/03 09:53:35;;;;;;;10.27;7.30;;;27.30;49.20;;;;;;5053874;28;20204;-93
2022/06/03 09:56:09;;;;;;;16.77;8.93;;;27.50;49.40;;;;;;5056101;28;20222;-91
2022/06/03 10:01:29;;;;;;;8.97;6.77;;;27.70;49.30;;;;;;5043652;28;20224;-93
2022/06/03 10:04:00;;;;;;;12.37;7.17;;;27.90;49.40;;;;;;5056493;28;20234;-93
2022/06/03 10:06:46;;;;;;;7.73;6.67;;;28.00;48.40;;;;;;5059504;28;20196;-91
2022/06/03 10:17:46;;;;;;;11.73;8.00;;;28.50;48.30;;;;;;5050162;28;20204;-91
2022/06/03 10:20:23;;;;;;;9.60;7.47;;;28.60;48.20;;;;;;5044207;28;20263;-95
2022/06/03 10:22:50;;;;;;;10.43;7.37;;;28.60;47.70;;;;;;5053303;28;20200;-92
2022/06/03 10:25:28;;;;;;;11.37;8.20;;;28.70;47.60;;;;;;5052916;28;20201;-93
2022/06/03 10:28:04;;;;;;;14.07;9.70;;;28.80;46.90;;;;;;5043455;28;20211;-94
2022/06/03 10:30:39;;;;;;;10.67;7.70;;;28.80;46.10;;;;;;5057133;28;20200;-93
2022/06/03 10:33:16;;;;;;;11.63;8.40;;;29.00;46.80;;;;;;5050759;28;20202;-94
2022/06/03 10:36:39;;;;;;;11.30;7.47;;;29.00;46.50;;;;;;5059872;28;20200;-93
2022/06/03 10:39:10;;;;;;;9.70;7.73;;;29.20;46.40;;;;;;5056266;28;20714;-92
2022/06/03 10:41:41;;;;;;;16.70;10.50;;;29.30;46.80;;;;;;5056765;28;20208;-93
2022/06/03 10:45:11;;;;;;;11.30;7.97;;;29.40;45.60;;;;;;5058027;28;20208;-93
2022/06/03 10:47:58;;;;;;;13.73;7.70;;;29.50;45.40;;;;;;5054330;28;20192;-90
2022/06/03 10:50:31;;;;;;;11.52;7.63;;;29.50;45.60;;;;;;5056082;28;20216;-90
2022/06/03 11:02:34;;;;;;;7.47;5.30;;;30.00;44.40;;;;;;5057903;28;20561;-93
2022/06/03 11:05:16;;;;;;;7.70;5.63;;;30.20;44.10;;;;;;5054582;28;20207;-90
2022/06/03 11:07:43;;;;;;;12.60;7.00;;;30.30;43.30;;;;;;5060045;28;20283;-91
2022/06/03 11:10:14;;;;;;;8.45;5.80;;;30.50;42.80;;;;;;5069849;28;20256;-92
2022/06/03 11:12:49;;;;;;;14.40;6.88;;;30.50;42.60;;;;;;5068519;28;20189;-91
2022/06/03 11:15:33;;;;;;;9.30;5.70;;;30.70;43.10;;;;;;5069963;28;20200;-90
2022/06/03 11:18:23;;;;;;;6.60;4.80;;;30.70;41.80;;;;;;5047452;28;20204;-91
2022/06/03 11:21:19;;;;;;;5.32;4.32;;;30.80;42.60;;;;;;5054369;28;20200;-91
2022/06/03 11:23:48;;;;;;;12.75;6.78;;;30.90;41.90;;;;;;5049720;28;20209;-93
2022/06/03 11:26:17;;;;;;;8.63;4.57;;;31.00;42.00;;;;;;5052688;28;20315;-92
2022/06/03 11:29:08;;;;;;;15.00;4.70;;;31.00;41.90;;;;;;5046743;28;20232;-93
2022/06/03 11:34:43;;;;;;;10.30;4.38;;;31.10;40.90;;;;;;5064175;22;20236;-92
2022/06/03 11:37:16;;;;;;;6.20;3.70;;;31.20;40.70;;;;;;5048547;28;20596;-92
2022/06/03 11:39:52;;;;;;;13.65;5.82;;;31.20;40.50;;;;;;5060083;28;20213;-95
2022/06/03 11:45:55;;;;;;;5.32;3.30;;;31.20;40.00;;;;;;4994154;28;20194;-95
2022/06/03 11:48:29;;;;;;;6.13;3.20;;;31.30;40.10;;;;;;5005159;28;20232;-91
2022/06/03 11:51:10;;;;;;;13.63;5.65;;;31.30;39.50;;;;;;5037685;28;20230;-93
2022/06/03 12:00:45;;;;;;;4.57;2.60;;;31.30;39.00;;;;;;5041477;28;20235;-93
2022/06/03 12:03:31;;;;;;;7.70;3.70;;;31.50;40.70;;;;;;5040195;28;20636;-94
2022/06/03 12:06:42;;;;;;;7.35;3.92;;;31.50;39.20;;;;;;5046338;28;20208;-93
2022/06/03 12:09:32;;;;;;;6.80;3.30;;;31.40;38.40;;;;;;5047567;28;20199;-93
2022/06/03 12:15:53;;;;;;;8.30;3.65;;;31.50;39.00;;;;;;5032634;22;20235;-95
2022/06/03 12:26:06;;;;;;;8.23;4.15;;;31.60;37.80;;;;;;5038953;28;20243;-91
2022/06/03 12:28:45;;;;;;;6.80;3.80;;;31.60;36.90;;;;;;5047072;28;20203;-92
2022/06/03 12:31:57;;;;;;;;;;;;;;;;;;;;;
2022/06/03 12:35:18;;;;;;;6.30;3.28;;;31.70;37.00;;;;;;5042573;28;20502;-94
2022/06/03 13:20:43;;;;;;;4.57;2.47;;;33.00;36.70;;;;;;5278625;23;20305;-96
2022/06/03 13:23:46;;;;;;;4.57;2.95;;;33.10;34.40;;;;;;4992849;28;20266;-96
2022/06/03 13:33:19;;;;;;;5.88;3.50;;;33.10;35.10;;;;;;4985376;28;20206;-96
2022/06/03 13:44:50;;;;;;;4.43;2.83;;;33.10;33.70;;;;;;5014044;28;20210;-96
2022/06/03 13:47:26;;;;;;;5.00;2.97;;;33.10;34.50;;;;;;4990162;28;20221;-96
2022/06/03 13:50:00;;;;;;;6.82;2.83;;;33.10;34.30;;;;;;5004847;28;20292;-96
2022/06/03 13:56:23;;;;;;;2.97;2.08;;;33.10;34.30;;;;;;5014422;28;20225;-96
2022/06/03 13:59:00;;;;;;;4.95;2.15;;;33.00;34.00;;;;;;5016765;28;20280;-96
2022/06/03 14:05:13;;;;;;;8.38;3.25;;;33.00;33.70;;;;;;5015993;28;20585;-96
2022/06/03 14:07:47;;;;;;;11.95;3.50;;;33.00;33.80;;;;;;5013159;28;20221;-96
2022/06/03 14:10:32;;;;;;;3.97;2.53;;;33.00;34.00;;;;;;5216082;23;20233;-96
2022/06/03 14:13:15;;;;;;;6.53;3.05;;;33.00;33.40;;;;;;4994388;28;20207;-96
2022/06/03 14:15:54;;;;;;;3.58;2.08;;;32.90;33.80;;;;;;4999205;28;20193;-96
2022/06/03 14:19:10;;;;;;;5.93;2.75;;;32.90;32.80;;;;;;5007401;28;20206;-95
2022/06/03 14:21:59;;;;;;;5.03;3.03;;;32.90;33.50;;;;;;4985937;28;20210;-95
2022/06/03 14:24:32;;;;;;;5.80;3.25;;;32.90;33.30;;;;;;4999016;28;20206;-96
2022/06/03 14:27:29;;;;;;;2.35;1.70;;;32.90;33.20;;;;;;5015524;28;20228;-96
2022/06/03 14:33:38;;;;;;;4.80;2.85;;;32.80;32.80;;;;;;5004094;28;20190;-95
2022/06/03 14:36:08;;;;;;;3.47;1.98;;;32.80;32.70;;;;;;5005954;28;20186;-96
2022/06/03 14:38:56;;;;;;;5.60;3.10;;;32.80;33.00;;;;;;5008915;28;20265;-96
2022/06/03 14:44:27;;;;;;;7.60;3.95;;;32.60;33.70;;;;;;5311677;23;20249;-93
2022/06/03 14:46:57;;;;;;;22.90;4.30;;;32.60;33.20;;;;;;4972745;28;20207;-94
2022/06/03 14:49:30;;;;;;;8.25;3.38;;;32.40;33.30;;;;;;4973833;28;20206;-95
2022/06/03 14:52:02;;;;;;;6.22;3.53;;;32.40;33.20;;;;;;4973995;28;20210;-93
2022/06/03 14:54:38;;;;;;;5.15;2.72;;;32.30;33.60;;;;;;4972069;28;20215;-95
2022/06/03 14:57:09;;;;;;;8.18;2.60;;;32.20;32.80;;;;;;4976033;28;20277;-93
2022/06/03 15:00:06;;;;;;;5.00;3.08;;;32.20;32.70;;;;;;4961619;28;20282;-93
2022/06/03 15:06:24;;;;;;;4.25;2.08;;;32.00;32.60;;;;;;4889220;29;20659;-95
2022/06/03 15:12:30;;;;;;;5.68;3.00;;;31.90;32.10;;;;;;4960220;28;20206;-94
2022/06/03 15:14:57;;;;;;;5.05;3.03;;;31.80;32.70;;;;;;4971912;28;20205;-92
2022/06/03 15:17:28;;;;;;;6.90;3.58;;;31.70;32.80;;;;;;4972264;28;20230;-91
2022/06/03 15:22:57;;;;;;;7.93;4.78;;;31.60;33.10;;;;;;5047022;23;20258;-92
2022/06/03 15:26:05;;;;;;;7.25;4.95;;;31.50;33.70;;;;;;4970588;28;20429;-95
2022/06/03 15:28:35;;;;;;;5.07;3.60;;;31.40;33.80;;;;;;4983123;28;20780;-96
2022/06/03 15:31:06;;;;;;;9.30;5.40;;;31.30;34.00;;;;;;4988073;28;20202;-94
2022/06/03 15:33:39;;;;;;;9.23;5.30;;;31.30;34.50;;;;;;4972769;28;20210;-95
2022/06/03 15:36:10;;;;;;;9.52;4.18;;;31.10;34.20;;;;;;4969758;28;20250;-92
2022/06/03 15:38:40;;;;;;;11.73;5.80;;;31.00;34.30;;;;;;4971579;28;20270;-92
2022/06/03 15:41:09;;;;;;;6.30;4.27;;;31.00;34.50;;;;;;4952399;28;20235;-92
2022/06/03 15:43:42;;;;;;;5.67;3.87;;;30.90;34.60;;;;;;4974513;28;20217;-93
2022/06/03 15:49:00;;;;;;;8.43;5.33;;;30.80;34.80;;;;;;4961306;28;20709;-93
2022/06/03 15:51:29;;;;;;;7.03;4.37;;;30.70;34.30;;;;;;4961450;28;20286;-91
2022/06/03 15:54:02;;;;;;;8.63;4.90;;;30.60;34.60;;;;;;4970650;28;20620;-93
2022/06/03 15:56:43;;;;;;;9.13;4.97;;;30.60;34.90;;;;;;4976915;28;20241;-94
2022/06/03 16:02:24;;;;;;;11.27;4.50;;;30.40;35.10;;;;;;4956906;28;20213;-93
2022/06/03 16:05:02;;;;;;;5.73;3.60;;;30.30;35.40;;;;;;4967741;28;20215;-95
2022/06/03 16:11:01;;;;;;;8.23;3.73;;;30.10;35.90;;;;;;4972128;28;20623;-95
2022/06/03 16:13:44;;;;;;;6.93;3.90;;;29.90;35.80;;;;;;4964882;28;20235;-95
2022/06/03 16:16:26;;;;;;;10.53;4.83;;;29.80;35.90;;;;;;4970074;28;20619;-94
2022/06/03 16:19:05;;;;;;;9.20;4.43;;;29.70;36.20;;;;;;4965838;28;20251;-92
2022/06/03 16:22:09;;;;;;;7.20;3.43;;;29.60;36.40;;;;;;4964505;28;20227;-92
2022/06/03 16:24:51;;;;;;;8.97;4.40;;;29.50;36.60;;;;;;4962611;28;20450;-93
2022/06/03 16:28:18;;;;;;;8.90;4.03;;;29.40;36.80;;;;;;4961254;28;20227;-95
2022/06/03 16:30:55;;;;;;;9.90;5.30;;;29.40;37.00;;;;;;4965080;28;20238;-93
2022/06/03 16:33:33;;;;;;;9.80;4.33;;;29.30;37.10;;;;;;4964326;28;20209;-94
2022/06/03 16:36:32;;;;;;;7.57;3.70;;;29.20;36.90;;;;;;4961063;28;20203;-93
2022/06/03 16:39:06;;;;;;;7.47;4.00;;;29.20;37.20;;;;;;4964136;28;20202;-93
2022/06/03 16:41:40;;;;;;;7.37;3.87;;;29.10;37.20;;;;;;4960931;28;20332;-94
2022/06/03 16:44:20;;;;;;;7.27;3.93;;;29.00;37.20;;;;;;4965309;28;20550;-95
2022/06/03 16:46:59;;;;;;;11.40;5.40;;;29.00;37.50;;;;;;4975795;28;20205;-94
2022/06/03 16:49:51;;;;;;;15.90;7.10;;;28.90;37.40;;;;;;4966638;28;20232;-94
2022/06/03 16:52:29;;;;;;;10.23;5.07;;;28.80;37.40;;;;;;4977959;28;20207;-93
2022/06/03 16:55:16;;;;;;;9.97;4.23;;;28.80;37.50;;;;;;4984598;28;20214;-95
2022/06/03 16:57:57;;;;;;;9.10;3.83;;;28.70;37.60;;;;;;4973274;28;20648;-93
2022/06/03 17:00:28;;;;;;;9.53;4.23;;;28.70;37.50;;;;;;4966494;28;20237;-91
2022/06/03 17:03:01;;;;;;;5.93;3.10;;;28.70;37.30;;;;;;4969417;28;20289;-93
2022/06/03 17:05:30;;;;;;;8.13;3.83;;;28.60;37.30;;;;;;4965909;28;20226;-95
2022/06/03 17:08:00;;;;;;;7.57;3.57;;;28.50;37.30;;;;;;4968525;28;20277;-90
2022/06/03 17:10:34;;;;;;;8.97;4.43;;;28.40;37.40;;;;;;4963308;28;20211;-93
2022/06/03 17:13:07;;;;;;;7.27;3.23;;;28.40;37.60;;;;;;4968240;28;20245;-92
2022/06/03 17:15:34;;;;;;;6.77;3.63;;;28.30;37.60;;;;;;4966092;28;20206;-93
2022/06/03 17:18:02;;;;;;;9.50;4.60;;;28.20;37.70;;;;;;4967033;28;20702;-91
2022/06/03 17:20:40;;;;;;;9.90;4.63;;;28.20;37.60;;;;;;4968279;28;20702;-91
2022/06/03 17:23:40;;;;;;;6.80;3.67;;;28.10;37.70;;;;;;4966228;28;20219;-91
2022/06/03 17:26:18;;;;;;;6.23;2.97;;;28.00;37.80;;;;;;4970477;28;20202;-91
2022/06/03 17:29:12;;;;;;;7.77;3.40;;;27.90;38.10;;;;;;4963362;28;20289;-91
2022/06/03 17:31:43;;;;;;;9.27;4.30;;;27.90;38.10;;;;;;4944555;28;20217;-91
2022/06/03 17:34:44;;;;;;;7.07;3.40;;;27.90;38.00;;;;;;4959909;28;20210;-94
2022/06/03 17:40:47;;;;;;;8.20;4.03;;;27.80;38.40;;;;;;4954198;28;20221;-93
2022/06/03 17:43:28;;;;;;;10.27;4.50;;;27.80;38.40;;;;;;4962264;28;20203;-92
2022/06/03 17:46:21;;;;;;;9.13;4.53;;;27.80;38.40;;;;;;4966556;28;20239;-91
2022/06/03 17:49:07;;;;;;;4.83;2.70;;;27.80;38.20;;;;;;4931622;29;20208;-93
2022/06/03 17:55:26;;;;;;;7.33;3.20;;;27.70;38.30;;;;;;4964492;28;20268;-94
2022/06/03 17:58:16;;;;;;;11.20;4.07;;;27.70;38.10;;;;;;4960094;28;20199;-93
2022/06/03 18:00:59;;;;;;;9.77;4.13;;;27.70;37.90;;;;;;4955445;28;20234;-95
2022/06/03 18:03:56;;;;;;;4.97;2.60;;;27.70;38.10;;;;;;4967341;28;20229;-93
2022/06/03 18:06:28;;;;;;;4.97;2.33;;;27.70;38.20;;;;;;4961261;28;20203;-95
2022/06/03 18:09:34;;;;;;;8.23;4.17;;;27.70;38.20;;;;;;4967912;28;20212;-91
2022/06/03 18:12:11;;;;;;;8.50;3.70;;;27.70;38.00;;;;;;4963841;28;20214;-90
2022/06/03 18:14:52;;;;;;;9.93;4.37;;;27.60;38.00;;;;;;4963431;28;20200;-93
2022/06/03 18:17:42;;;;;;;5.77;2.93;;;27.60;37.50;;;;;;4961688;28;20215;-89
2022/06/03 18:20:16;;;;;;;7.13;3.10;;;27.50;37.50;;;;;;4954892;28;20547;-92
2022/06/03 18:23:05;;;;;;;7.30;3.57;;;27.50;37.60;;;;;;4970261;28;20218;-92